sensor_id;sensor_type;location;lat;lon;timestamp;temperature;humidity
24860;DHT22;12936;52.006;4.350;2024-01-06T00:01:30;7.90;99.90
24860;DHT22;12936;52.006;4.350;2024-01-06T00:03:58;7.90;99.90
24860;DHT22;12936;52.006;4.350;2024-01-06T00:06:27;7.90;99.90
24860;DHT22;12936;52.006;4.350;2024-01-06T00:08:55;7.80;99.90
24860;DHT22;12936;52.006;4.350;2024-01-06T00:11:23;7.80;99.90
24860;DHT22;12936;52.006;4.350;2024-01-06T00:13:52;7.80;99.90
24860;DHT22;12936;52.006;4.350;2024-01-06T00:16:21;7.80;99.90
24860;DHT22;12936;52.006;4.350;2024-01-06T00:18:53;7.80;99.90
24860;DHT22;12936;52.006;4.350;2024-01-06T00:21:21;7.70;99.90
24860;DHT22;12936;52.006;4.350;2024-01-06T00:23:49;7.80;99.90
24860;DHT22;12936;52.006;4.350;2024-01-06T00:26:20;7.80;99.90
24860;DHT22;12936;52.006;4.350;2024-01-06T00:28:48;7.80;99.90
24860;DHT22;12936;52.006;4.350;2024-01-06T00:31:17;7.70;99.90
24860;DHT22;12936;52.006;4.350;2024-01-06T00:33:47;7.80;99.90
24860;DHT22;12936;52.006;4.350;2024-01-06T00:36:16;7.80;99.90
24860;DHT22;12936;52.006;4.350;2024-01-06T00:38:44;7.70;99.90
24860;DHT22;12936;52.006;4.350;2024-01-06T00:41:13;7.80;99.90
24860;DHT22;12936;52.006;4.350;2024-01-06T00:43:41;7.80;99.90
24860;DHT22;12936;52.006;4.350;2024-01-06T00:46:09;7.80;99.90
24860;DHT22;12936;52.006;4.350;2024-01-06T00:48:37;7.80;99.90
24860;DHT22;12936;52.006;4.350;2024-01-06T00:51:06;7.80;99.90
24860;DHT22;12936;52.006;4.350;2024-01-06T00:53:35;7.80;99.90
24860;DHT22;12936;52.006;4.350;2024-01-06T00:56:03;7.80;99.90
24860;DHT22;12936;52.006;4.350;2024-01-06T00:58:31;7.70;99.90
24860;DHT22;12936;52.006;4.350;2024-01-06T01:00:59;7.70;99.90
24860;DHT22;12936;52.006;4.350;2024-01-06T01:03:27;7.70;99.90
24860;DHT22;12936;52.006;4.350;2024-01-06T01:05:56;7.70;99.90
24860;DHT22;12936;52.006;4.350;2024-01-06T01:08:25;7.70;99.90
24860;DHT22;12936;52.006;4.350;2024-01-06T01:10:54;7.70;99.90
24860;DHT22;12936;52.006;4.350;2024-01-06T01:13:22;7.70;99.90
24860;DHT22;12936;52.006;4.350;2024-01-06T01:15:50;7.70;99.90
24860;DHT22;12936;52.006;4.350;2024-01-06T01:18:18;7.70;99.90
24860;DHT22;12936;52.006;4.350;2024-01-06T01:20:46;7.70;99.90
24860;DHT22;12936;52.006;4.350;2024-01-06T01:23:15;7.60;99.90
24860;DHT22;12936;52.006;4.350;2024-01-06T01:25:44;7.60;99.90
24860;DHT22;12936;52.006;4.350;2024-01-06T01:28:13;7.60;99.90
24860;DHT22;12936;52.006;4.350;2024-01-06T01:30:41;7.60;99.90
24860;DHT22;12936;52.006;4.350;2024-01-06T01:33:09;7.60;99.90
24860;DHT22;12936;52.006;4.350;2024-01-06T01:35:38;7.50;99.90
24860;DHT22;12936;52.006;4.350;2024-01-06T01:38:07;7.50;99.90
24860;DHT22;12936;52.006;4.350;2024-01-06T01:40:35;7.50;99.90
24860;DHT22;12936;52.006;4.350;2024-01-06T01:43:04;7.50;99.90
24860;DHT22;12936;52.006;4.350;2024-01-06T01:45:36;7.40;99.90
24860;DHT22;12936;52.006;4.350;2024-01-06T01:48:05;7.40;99.90
24860;DHT22;12936;52.006;4.350;2024-01-06T01:50:34;7.30;99.90
24860;DHT22;12936;52.006;4.350;2024-01-06T01:53:03;7.30;99.90
24860;DHT22;12936;52.006;4.350;2024-01-06T01:55:31;7.30;99.90
24860;DHT22;12936;52.006;4.350;2024-01-06T01:57:59;7.30;99.90
24860;DHT22;12936;52.006;4.350;2024-01-06T02:00:29;7.30;99.90
24860;DHT22;12936;52.006;4.350;2024-01-06T02:02:57;7.20;99.90
24860;DHT22;12936;52.006;4.350;2024-01-06T02:05:26;7.20;99.90
24860;DHT22;12936;52.006;4.350;2024-01-06T02:07:55;7.20;99.90
24860;DHT22;12936;52.006;4.350;2024-01-06T02:10:23;7.20;99.90
24860;DHT22;12936;52.006;4.350;2024-01-06T02:12:51;7.20;99.90
24860;DHT22;12936;52.006;4.350;2024-01-06T02:15:19;7.20;99.90
24860;DHT22;12936;52.006;4.350;2024-01-06T02:17:49;7.20;99.90
24860;DHT22;12936;52.006;4.350;2024-01-06T02:20:18;7.10;99.90
24860;DHT22;12936;52.006;4.350;2024-01-06T02:22:48;7.10;99.90
24860;DHT22;12936;52.006;4.350;2024-01-06T02:25:18;7.10;99.90
24860;DHT22;12936;52.006;4.350;2024-01-06T02:27:46;7.00;99.90
24860;DHT22;12936;52.006;4.350;2024-01-06T02:30:14;7.00;99.90
24860;DHT22;12936;52.006;4.350;2024-01-06T02:32:42;7.00;99.90
24860;DHT22;12936;52.006;4.350;2024-01-06T02:35:11;7.00;99.90
24860;DHT22;12936;52.006;4.350;2024-01-06T02:37:39;7.00;99.90
24860;DHT22;12936;52.006;4.350;2024-01-06T02:40:10;7.00;99.90
24860;DHT22;12936;52.006;4.350;2024-01-06T02:42:38;7.00;99.90
24860;DHT22;12936;52.006;4.350;2024-01-06T02:45:07;7.00;99.90
24860;DHT22;12936;52.006;4.350;2024-01-06T02:47:36;7.00;99.90
24860;DHT22;12936;52.006;4.350;2024-01-06T02:50:05;7.00;99.90
24860;DHT22;12936;52.006;4.350;2024-01-06T02:52:33;7.00;99.90
24860;DHT22;12936;52.006;4.350;2024-01-06T02:55:01;7.00;99.90
24860;DHT22;12936;52.006;4.350;2024-01-06T02:57:31;7.00;99.90
24860;DHT22;12936;52.006;4.350;2024-01-06T02:59:59;7.00;99.90
24860;DHT22;12936;52.006;4.350;2024-01-06T03:02:28;6.90;99.90
24860;DHT22;12936;52.006;4.350;2024-01-06T03:04:56;7.00;99.90
24860;DHT22;12936;52.006;4.350;2024-01-06T03:07:24;6.90;99.90
24860;DHT22;12936;52.006;4.350;2024-01-06T03:09:53;6.90;99.90
24860;DHT22;12936;52.006;4.350;2024-01-06T03:12:21;6.90;99.90
24860;DHT22;12936;52.006;4.350;2024-01-06T03:14:51;6.90;99.90
24860;DHT22;12936;52.006;4.350;2024-01-06T03:17:19;6.90;99.90
24860;DHT22;12936;52.006;4.350;2024-01-06T03:19:47;6.90;99.90
24860;DHT22;12936;52.006;4.350;2024-01-06T03:22:16;6.90;99.90
24860;DHT22;12936;52.006;4.350;2024-01-06T03:24:44;6.90;99.90
24860;DHT22;12936;52.006;4.350;2024-01-06T03:27:12;6.90;99.90
24860;DHT22;12936;52.006;4.350;2024-01-06T03:29:40;6.90;99.90
24860;DHT22;12936;52.006;4.350;2024-01-06T03:32:10;6.90;99.90
24860;DHT22;12936;52.006;4.350;2024-01-06T03:34:38;6.80;99.90
24860;DHT22;12936;52.006;4.350;2024-01-06T03:37:06;6.90;99.90
24860;DHT22;12936;52.006;4.350;2024-01-06T03:39:34;6.90;99.90
24860;DHT22;12936;52.006;4.350;2024-01-06T03:42:02;6.90;99.90
24860;DHT22;12936;52.006;4.350;2024-01-06T03:44:31;6.90;99.90
24860;DHT22;12936;52.006;4.350;2024-01-06T03:47:00;6.80;99.90
24860;DHT22;12936;52.006;4.350;2024-01-06T03:49:29;6.80;99.90
24860;DHT22;12936;52.006;4.350;2024-01-06T03:51:57;6.90;99.90
24860;DHT22;12936;52.006;4.350;2024-01-06T03:54:26;6.80;99.90
24860;DHT22;12936;52.006;4.350;2024-01-06T03:56:54;6.80;99.90
24860;DHT22;12936;52.006;4.350;2024-01-06T03:59:24;6.90;99.90
24860;DHT22;12936;52.006;4.350;2024-01-06T04:01:52;6.80;99.90
24860;DHT22;12936;52.006;4.350;2024-01-06T04:04:21;6.80;99.90
24860;DHT22;12936;52.006;4.350;2024-01-06T04:06:50;6.80;99.90
24860;DHT22;12936;52.006;4.350;2024-01-06T04:09:19;6.80;99.90
24860;DHT22;12936;52.006;4.350;2024-01-06T04:11:47;6.80;99.90
24860;DHT22;12936;52.006;4.350;2024-01-06T04:14:16;6.70;99.90
24860;DHT22;12936;52.006;4.350;2024-01-06T04:16:44;6.70;99.90
24860;DHT22;12936;52.006;4.350;2024-01-06T04:19:12;6.70;99.90
24860;DHT22;12936;52.006;4.350;2024-01-06T04:21:42;6.70;99.90
24860;DHT22;12936;52.006;4.350;2024-01-06T04:24:11;6.70;99.90
24860;DHT22;12936;52.006;4.350;2024-01-06T04:26:39;6.70;99.90
24860;DHT22;12936;52.006;4.350;2024-01-06T04:29:07;6.70;99.90
24860;DHT22;12936;52.006;4.350;2024-01-06T04:31:35;6.70;99.90
24860;DHT22;12936;52.006;4.350;2024-01-06T04:34:03;6.70;99.90
24860;DHT22;12936;52.006;4.350;2024-01-06T04:36:32;6.60;99.90
24860;DHT22;12936;52.006;4.350;2024-01-06T04:39:00;6.60;99.90
24860;DHT22;12936;52.006;4.350;2024-01-06T04:41:30;6.60;99.90
24860;DHT22;12936;52.006;4.350;2024-01-06T04:43:58;6.70;99.90
24860;DHT22;12936;52.006;4.350;2024-01-06T04:46:26;6.70;99.90
24860;DHT22;12936;52.006;4.350;2024-01-06T04:48:54;6.70;99.90
24860;DHT22;12936;52.006;4.350;2024-01-06T04:51:22;6.60;99.90
24860;DHT22;12936;52.006;4.350;2024-01-06T04:53:50;6.70;99.90
24860;DHT22;12936;52.006;4.350;2024-01-06T04:56:21;6.70;99.90
24860;DHT22;12936;52.006;4.350;2024-01-06T04:58:51;6.60;99.90
24860;DHT22;12936;52.006;4.350;2024-01-06T05:01:19;6.70;99.90
24860;DHT22;12936;52.006;4.350;2024-01-06T05:03:47;6.60;99.90
24860;DHT22;12936;52.006;4.350;2024-01-06T05:06:16;6.60;99.90
24860;DHT22;12936;52.006;4.350;2024-01-06T05:08:44;6.60;99.90
24860;DHT22;12936;52.006;4.350;2024-01-06T05:11:12;6.60;99.90
24860;DHT22;12936;52.006;4.350;2024-01-06T05:13:40;6.60;99.90
24860;DHT22;12936;52.006;4.350;2024-01-06T05:16:10;6.70;99.90
24860;DHT22;12936;52.006;4.350;2024-01-06T05:18:38;6.60;99.90
24860;DHT22;12936;52.006;4.350;2024-01-06T05:21:06;6.50;99.90
24860;DHT22;12936;52.006;4.350;2024-01-06T05:23:35;6.50;99.90
24860;DHT22;12936;52.006;4.350;2024-01-06T05:26:03;6.50;99.90
24860;DHT22;12936;52.006;4.350;2024-01-06T05:28:31;6.50;99.90
24860;DHT22;12936;52.006;4.350;2024-01-06T05:30:59;6.50;99.90
24860;DHT22;12936;52.006;4.350;2024-01-06T05:33:29;6.50;99.90
24860;DHT22;12936;52.006;4.350;2024-01-06T05:35:57;6.50;99.90
24860;DHT22;12936;52.006;4.350;2024-01-06T05:38:25;6.40;99.90
24860;DHT22;12936;52.006;4.350;2024-01-06T05:40:53;6.40;99.90
24860;DHT22;12936;52.006;4.350;2024-01-06T05:43:21;6.40;99.90
24860;DHT22;12936;52.006;4.350;2024-01-06T05:45:49;6.40;99.90
24860;DHT22;12936;52.006;4.350;2024-01-06T05:48:18;6.30;99.90
24860;DHT22;12936;52.006;4.350;2024-01-06T05:50:47;6.40;99.90
24860;DHT22;12936;52.006;4.350;2024-01-06T05:53:18;6.40;99.90
24860;DHT22;12936;52.006;4.350;2024-01-06T05:55:46;6.30;99.90
24860;DHT22;12936;52.006;4.350;2024-01-06T05:58:14;6.30;99.90
24860;DHT22;12936;52.006;4.350;2024-01-06T06:00:42;6.30;99.90
24860;DHT22;12936;52.006;4.350;2024-01-06T06:03:12;6.40;99.90
24860;DHT22;12936;52.006;4.350;2024-01-06T06:05:40;6.50;99.90
24860;DHT22;12936;52.006;4.350;2024-01-06T06:08:10;6.30;99.90
24860;DHT22;12936;52.006;4.350;2024-01-06T06:10:38;6.30;99.90
24860;DHT22;12936;52.006;4.350;2024-01-06T06:13:18;6.30;99.90
24860;DHT22;12936;52.006;4.350;2024-01-06T06:15:47;6.30;99.90
24860;DHT22;12936;52.006;4.350;2024-01-06T06:18:15;6.30;99.90
24860;DHT22;12936;52.006;4.350;2024-01-06T06:20:43;6.40;99.90
24860;DHT22;12936;52.006;4.350;2024-01-06T06:23:13;6.30;99.90
24860;DHT22;12936;52.006;4.350;2024-01-06T06:25:41;6.30;99.90
24860;DHT22;12936;52.006;4.350;2024-01-06T06:28:09;6.30;99.90
24860;DHT22;12936;52.006;4.350;2024-01-06T06:30:37;6.30;99.90
24860;DHT22;12936;52.006;4.350;2024-01-06T06:33:06;6.30;99.90
24860;DHT22;12936;52.006;4.350;2024-01-06T06:35:35;6.20;99.90
24860;DHT22;12936;52.006;4.350;2024-01-06T06:38:07;6.20;99.90
24860;DHT22;12936;52.006;4.350;2024-01-06T06:40:36;6.30;99.90
24860;DHT22;12936;52.006;4.350;2024-01-06T06:43:04;6.10;99.90
24860;DHT22;12936;52.006;4.350;2024-01-06T06:45:32;6.10;99.90
24860;DHT22;12936;52.006;4.350;2024-01-06T06:48:00;6.20;99.90
24860;DHT22;12936;52.006;4.350;2024-01-06T06:50:28;6.20;99.90
24860;DHT22;12936;52.006;4.350;2024-01-06T06:52:56;6.10;99.90
24860;DHT22;12936;52.006;4.350;2024-01-06T06:55:24;6.20;99.90
24860;DHT22;12936;52.006;4.350;2024-01-06T06:57:55;6.10;99.90
24860;DHT22;12936;52.006;4.350;2024-01-06T07:00:23;6.20;99.90
24860;DHT22;12936;52.006;4.350;2024-01-06T07:02:51;6.10;99.90
24860;DHT22;12936;52.006;4.350;2024-01-06T07:05:19;6.10;99.90
24860;DHT22;12936;52.006;4.350;2024-01-06T07:07:49;6.00;99.90
24860;DHT22;12936;52.006;4.350;2024-01-06T07:10:17;6.00;99.90
24860;DHT22;12936;52.006;4.350;2024-01-06T07:12:45;6.00;99.90
24860;DHT22;12936;52.006;4.350;2024-01-06T07:15:14;6.10;99.90
24860;DHT22;12936;52.006;4.350;2024-01-06T07:17:43;6.00;99.90
24860;DHT22;12936;52.006;4.350;2024-01-06T07:20:11;6.00;99.90
24860;DHT22;12936;52.006;4.350;2024-01-06T07:22:40;6.10;99.90
24860;DHT22;12936;52.006;4.350;2024-01-06T07:25:08;6.10;99.90
24860;DHT22;12936;52.006;4.350;2024-01-06T07:27:37;6.00;99.90
24860;DHT22;12936;52.006;4.350;2024-01-06T07:30:06;5.90;99.90
24860;DHT22;12936;52.006;4.350;2024-01-06T07:32:37;6.00;99.90
24860;DHT22;12936;52.006;4.350;2024-01-06T07:35:06;6.00;99.90
24860;DHT22;12936;52.006;4.350;2024-01-06T07:37:34;6.00;99.90
24860;DHT22;12936;52.006;4.350;2024-01-06T07:40:03;6.00;99.90
24860;DHT22;12936;52.006;4.350;2024-01-06T07:42:32;6.00;99.90
24860;DHT22;12936;52.006;4.350;2024-01-06T07:45:00;6.00;99.90
24860;DHT22;12936;52.006;4.350;2024-01-06T07:47:29;6.10;99.90
24860;DHT22;12936;52.006;4.350;2024-01-06T07:49:58;6.10;99.90
24860;DHT22;12936;52.006;4.350;2024-01-06T07:52:26;6.10;99.90
24860;DHT22;12936;52.006;4.350;2024-01-06T07:54:54;5.90;99.90
24860;DHT22;12936;52.006;4.350;2024-01-06T07:57:22;5.90;99.90
24860;DHT22;12936;52.006;4.350;2024-01-06T07:59:51;6.00;99.90
24860;DHT22;12936;52.006;4.350;2024-01-06T08:02:19;6.00;99.90
24860;DHT22;12936;52.006;4.350;2024-01-06T08:04:47;6.00;99.90
24860;DHT22;12936;52.006;4.350;2024-01-06T08:07:17;6.00;99.90
24860;DHT22;12936;52.006;4.350;2024-01-06T08:09:45;6.00;99.90
24860;DHT22;12936;52.006;4.350;2024-01-06T08:12:15;6.00;99.90
24860;DHT22;12936;52.006;4.350;2024-01-06T08:14:43;5.90;99.90
24860;DHT22;12936;52.006;4.350;2024-01-06T08:17:11;5.90;99.90
24860;DHT22;12936;52.006;4.350;2024-01-06T08:19:43;5.90;99.90
24860;DHT22;12936;52.006;4.350;2024-01-06T08:22:13;6.00;99.90
24860;DHT22;12936;52.006;4.350;2024-01-06T08:24:43;5.90;99.90
24860;DHT22;12936;52.006;4.350;2024-01-06T08:27:11;6.00;99.90
24860;DHT22;12936;52.006;4.350;2024-01-06T08:29:39;5.90;99.90
24860;DHT22;12936;52.006;4.350;2024-01-06T08:32:08;6.00;99.90
24860;DHT22;12936;52.006;4.350;2024-01-06T08:34:37;6.00;99.90
24860;DHT22;12936;52.006;4.350;2024-01-06T08:37:05;6.00;99.90
24860;DHT22;12936;52.006;4.350;2024-01-06T08:39:33;6.00;99.90
24860;DHT22;12936;52.006;4.350;2024-01-06T08:42:03;6.00;99.90
24860;DHT22;12936;52.006;4.350;2024-01-06T08:44:31;6.00;99.90
24860;DHT22;12936;52.006;4.350;2024-01-06T08:46:59;6.00;99.90
24860;DHT22;12936;52.006;4.350;2024-01-06T08:49:28;6.10;99.90
24860;DHT22;12936;52.006;4.350;2024-01-06T08:51:58;6.10;99.90
24860;DHT22;12936;52.006;4.350;2024-01-06T08:54:26;6.00;99.90
24860;DHT22;12936;52.006;4.350;2024-01-06T08:56:55;6.00;99.90
24860;DHT22;12936;52.006;4.350;2024-01-06T08:59:25;6.10;99.90
24860;DHT22;12936;52.006;4.350;2024-01-06T09:01:53;6.10;99.90
24860;DHT22;12936;52.006;4.350;2024-01-06T09:04:21;6.10;99.90
24860;DHT22;12936;52.006;4.350;2024-01-06T09:06:49;6.10;99.90
24860;DHT22;12936;52.006;4.350;2024-01-06T09:09:18;6.10;99.90
24860;DHT22;12936;52.006;4.350;2024-01-06T09:11:46;6.10;99.90
24860;DHT22;12936;52.006;4.350;2024-01-06T09:14:13;6.10;99.90
24860;DHT22;12936;52.006;4.350;2024-01-06T09:16:43;6.10;99.90
24860;DHT22;12936;52.006;4.350;2024-01-06T09:19:11;6.10;99.90
24860;DHT22;12936;52.006;4.350;2024-01-06T09:21:39;6.10;99.90
24860;DHT22;12936;52.006;4.350;2024-01-06T09:24:10;6.10;99.90
24860;DHT22;12936;52.006;4.350;2024-01-06T09:26:46;6.10;99.90
24860;DHT22;12936;52.006;4.350;2024-01-06T09:29:34;6.10;99.90
24860;DHT22;12936;52.006;4.350;2024-01-06T09:32:04;6.10;99.90
24860;DHT22;12936;52.006;4.350;2024-01-06T09:34:32;6.20;99.90
24860;DHT22;12936;52.006;4.350;2024-01-06T09:37:05;6.20;99.90
24860;DHT22;12936;52.006;4.350;2024-01-06T09:39:33;6.30;99.90
24860;DHT22;12936;52.006;4.350;2024-01-06T09:42:01;6.30;99.90
24860;DHT22;12936;52.006;4.350;2024-01-06T09:44:30;6.20;99.90
24860;DHT22;12936;52.006;4.350;2024-01-06T09:46:58;6.20;99.90
24860;DHT22;12936;52.006;4.350;2024-01-06T09:49:28;6.30;99.90
24860;DHT22;12936;52.006;4.350;2024-01-06T09:51:59;6.30;99.90
24860;DHT22;12936;52.006;4.350;2024-01-06T09:54:30;6.20;99.90
24860;DHT22;12936;52.006;4.350;2024-01-06T09:57:02;6.30;99.90
24860;DHT22;12936;52.006;4.350;2024-01-06T09:59:33;6.30;99.90
24860;DHT22;12936;52.006;4.350;2024-01-06T10:02:04;6.20;99.90
24860;DHT22;12936;52.006;4.350;2024-01-06T10:04:34;6.20;99.90
24860;DHT22;12936;52.006;4.350;2024-01-06T10:07:02;6.20;99.90
24860;DHT22;12936;52.006;4.350;2024-01-06T10:09:32;6.10;99.90
24860;DHT22;12936;52.006;4.350;2024-01-06T10:12:01;6.20;99.90
24860;DHT22;12936;52.006;4.350;2024-01-06T10:14:29;6.10;99.90
24860;DHT22;12936;52.006;4.350;2024-01-06T10:16:58;6.20;99.90
24860;DHT22;12936;52.006;4.350;2024-01-06T10:19:26;6.10;99.90
24860;DHT22;12936;52.006;4.350;2024-01-06T10:21:56;6.00;99.90
24860;DHT22;12936;52.006;4.350;2024-01-06T10:24:29;6.00;99.90
24860;DHT22;12936;52.006;4.350;2024-01-06T10:26:59;6.00;99.90
24860;DHT22;12936;52.006;4.350;2024-01-06T10:29:27;6.00;99.90
24860;DHT22;12936;52.006;4.350;2024-01-06T10:31:56;6.00;99.90
24860;DHT22;12936;52.006;4.350;2024-01-06T10:34:25;6.00;99.90
24860;DHT22;12936;52.006;4.350;2024-01-06T10:36:56;5.90;99.90
24860;DHT22;12936;52.006;4.350;2024-01-06T10:39:25;5.90;99.90
24860;DHT22;12936;52.006;4.350;2024-01-06T10:41:57;5.90;99.90
24860;DHT22;12936;52.006;4.350;2024-01-06T10:44:26;5.90;99.90
24860;DHT22;12936;52.006;4.350;2024-01-06T10:46:57;5.80;99.90
24860;DHT22;12936;52.006;4.350;2024-01-06T10:49:27;5.80;99.90
24860;DHT22;12936;52.006;4.350;2024-01-06T10:51:58;5.80;99.90
24860;DHT22;12936;52.006;4.350;2024-01-06T10:54:27;5.90;99.90
24860;DHT22;12936;52.006;4.350;2024-01-06T10:56:57;5.90;99.90
24860;DHT22;12936;52.006;4.350;2024-01-06T10:59:26;6.00;99.90
24860;DHT22;12936;52.006;4.350;2024-01-06T11:01:58;6.00;99.90
24860;DHT22;12936;52.006;4.350;2024-01-06T11:04:26;6.00;99.90
24860;DHT22;12936;52.006;4.350;2024-01-06T11:06:55;5.90;99.90
24860;DHT22;12936;52.006;4.350;2024-01-06T11:09:31;5.90;99.90
24860;DHT22;12936;52.006;4.350;2024-01-06T11:12:00;6.00;99.90
24860;DHT22;12936;52.006;4.350;2024-01-06T11:14:29;6.00;99.90
24860;DHT22;12936;52.006;4.350;2024-01-06T11:16:59;6.00;99.90
24860;DHT22;12936;52.006;4.350;2024-01-06T11:19:52;6.00;99.90
24860;DHT22;12936;52.006;4.350;2024-01-06T11:22:31;6.00;99.90
24860;DHT22;12936;52.006;4.350;2024-01-06T11:25:06;6.00;99.90
24860;DHT22;12936;52.006;4.350;2024-01-06T11:27:36;6.10;99.90
24860;DHT22;12936;52.006;4.350;2024-01-06T11:30:05;6.00;99.90
24860;DHT22;12936;52.006;4.350;2024-01-06T11:32:36;6.00;99.90
24860;DHT22;12936;52.006;4.350;2024-01-06T11:35:07;6.00;99.90
24860;DHT22;12936;52.006;4.350;2024-01-06T11:37:39;6.00;99.90
24860;DHT22;12936;52.006;4.350;2024-01-06T11:40:29;6.00;99.90
24860;DHT22;12936;52.006;4.350;2024-01-06T11:43:01;6.10;99.90
24860;DHT22;12936;52.006;4.350;2024-01-06T11:45:30;6.10;99.90
24860;DHT22;12936;52.006;4.350;2024-01-06T11:48:00;6.10;99.90
24860;DHT22;12936;52.006;4.350;2024-01-06T11:50:30;6.10;99.90
24860;DHT22;12936;52.006;4.350;2024-01-06T11:52:59;6.10;99.90
24860;DHT22;12936;52.006;4.350;2024-01-06T11:55:29;6.10;99.90
24860;DHT22;12936;52.006;4.350;2024-01-06T11:57:59;6.10;99.90
24860;DHT22;12936;52.006;4.350;2024-01-06T12:00:30;6.10;99.90
24860;DHT22;12936;52.006;4.350;2024-01-06T12:02:59;6.00;99.90
24860;DHT22;12936;52.006;4.350;2024-01-06T12:05:29;6.00;99.90
24860;DHT22;12936;52.006;4.350;2024-01-06T12:07:58;6.00;99.90
24860;DHT22;12936;52.006;4.350;2024-01-06T12:10:29;6.10;99.90
24860;DHT22;12936;52.006;4.350;2024-01-06T12:13:03;6.10;99.90
24860;DHT22;12936;52.006;4.350;2024-01-06T12:15:32;6.10;99.90
24860;DHT22;12936;52.006;4.350;2024-01-06T12:18:03;6.10;99.90
24860;DHT22;12936;52.006;4.350;2024-01-06T12:20:32;6.10;99.90
24860;DHT22;12936;52.006;4.350;2024-01-06T12:23:00;6.10;99.90
24860;DHT22;12936;52.006;4.350;2024-01-06T12:25:35;6.20;99.90
24860;DHT22;12936;52.006;4.350;2024-01-06T12:28:07;6.10;99.90
24860;DHT22;12936;52.006;4.350;2024-01-06T12:30:38;6.10;99.90
24860;DHT22;12936;52.006;4.350;2024-01-06T12:33:06;6.10;99.90
24860;DHT22;12936;52.006;4.350;2024-01-06T12:35:38;6.20;99.90
24860;DHT22;12936;52.006;4.350;2024-01-06T12:38:08;6.10;99.90
24860;DHT22;12936;52.006;4.350;2024-01-06T12:40:38;6.20;99.90
24860;DHT22;12936;52.006;4.350;2024-01-06T12:43:08;6.20;99.90
24860;DHT22;12936;52.006;4.350;2024-01-06T12:45:37;6.10;99.90
24860;DHT22;12936;52.006;4.350;2024-01-06T12:48:06;6.10;99.90
24860;DHT22;12936;52.006;4.350;2024-01-06T12:50:35;6.10;99.90
24860;DHT22;12936;52.006;4.350;2024-01-06T12:53:04;6.20;99.90
24860;DHT22;12936;52.006;4.350;2024-01-06T12:55:32;6.30;99.90
24860;DHT22;12936;52.006;4.350;2024-01-06T12:58:02;6.30;99.90
24860;DHT22;12936;52.006;4.350;2024-01-06T13:00:31;6.30;99.90
24860;DHT22;12936;52.006;4.350;2024-01-06T13:03:03;6.30;99.90
24860;DHT22;12936;52.006;4.350;2024-01-06T13:05:31;6.20;99.90
24860;DHT22;12936;52.006;4.350;2024-01-06T13:08:00;6.20;99.90
24860;DHT22;12936;52.006;4.350;2024-01-06T13:10:30;6.20;99.90
24860;DHT22;12936;52.006;4.350;2024-01-06T13:12:58;6.20;99.90
24860;DHT22;12936;52.006;4.350;2024-01-06T13:15:27;6.20;99.90
24860;DHT22;12936;52.006;4.350;2024-01-06T13:17:56;6.10;99.90
24860;DHT22;12936;52.006;4.350;2024-01-06T13:20:24;6.10;99.90
24860;DHT22;12936;52.006;4.350;2024-01-06T13:22:52;6.20;99.90
24860;DHT22;12936;52.006;4.350;2024-01-06T13:25:20;6.10;99.90
24860;DHT22;12936;52.006;4.350;2024-01-06T13:27:49;6.10;99.90
24860;DHT22;12936;52.006;4.350;2024-01-06T13:30:18;6.20;99.90
24860;DHT22;12936;52.006;4.350;2024-01-06T13:32:48;6.20;99.90
24860;DHT22;12936;52.006;4.350;2024-01-06T13:35:18;6.20;99.90
24860;DHT22;12936;52.006;4.350;2024-01-06T13:37:46;6.20;99.90
24860;DHT22;12936;52.006;4.350;2024-01-06T13:40:15;6.20;99.90
24860;DHT22;12936;52.006;4.350;2024-01-06T13:42:46;6.10;99.90
24860;DHT22;12936;52.006;4.350;2024-01-06T13:45:15;6.20;99.90
24860;DHT22;12936;52.006;4.350;2024-01-06T13:47:43;6.10;99.90
24860;DHT22;12936;52.006;4.350;2024-01-06T13:50:16;6.20;99.90
24860;DHT22;12936;52.006;4.350;2024-01-06T13:52:45;6.20;99.90
24860;DHT22;12936;52.006;4.350;2024-01-06T13:55:15;6.20;99.90
24860;DHT22;12936;52.006;4.350;2024-01-06T13:57:43;6.30;99.90
24860;DHT22;12936;52.006;4.350;2024-01-06T14:00:12;6.20;99.90
24860;DHT22;12936;52.006;4.350;2024-01-06T14:02:47;6.30;99.90
24860;DHT22;12936;52.006;4.350;2024-01-06T14:05:16;6.20;99.90
24860;DHT22;12936;52.006;4.350;2024-01-06T14:07:46;6.30;99.90
24860;DHT22;12936;52.006;4.350;2024-01-06T14:10:17;6.20;99.90
24860;DHT22;12936;52.006;4.350;2024-01-06T14:12:46;6.20;99.90
24860;DHT22;12936;52.006;4.350;2024-01-06T14:15:15;6.20;99.90
24860;DHT22;12936;52.006;4.350;2024-01-06T14:17:43;6.20;99.90
24860;DHT22;12936;52.006;4.350;2024-01-06T14:20:18;6.20;99.90
24860;DHT22;12936;52.006;4.350;2024-01-06T14:22:47;6.20;99.90
24860;DHT22;12936;52.006;4.350;2024-01-06T14:25:16;6.20;99.90
24860;DHT22;12936;52.006;4.350;2024-01-06T14:27:45;6.20;99.90
24860;DHT22;12936;52.006;4.350;2024-01-06T14:30:14;6.20;99.90
24860;DHT22;12936;52.006;4.350;2024-01-06T14:32:42;6.30;99.90
24860;DHT22;12936;52.006;4.350;2024-01-06T14:35:11;6.30;99.90
24860;DHT22;12936;52.006;4.350;2024-01-06T14:37:42;6.20;99.90
24860;DHT22;12936;52.006;4.350;2024-01-06T14:40:12;6.30;99.90
24860;DHT22;12936;52.006;4.350;2024-01-06T14:42:40;6.20;99.90
24860;DHT22;12936;52.006;4.350;2024-01-06T14:45:09;6.20;99.90
24860;DHT22;12936;52.006;4.350;2024-01-06T14:47:37;6.10;99.90
24860;DHT22;12936;52.006;4.350;2024-01-06T14:50:06;6.10;99.90
24860;DHT22;12936;52.006;4.350;2024-01-06T14:52:35;6.10;99.90
24860;DHT22;12936;52.006;4.350;2024-01-06T14:55:06;6.10;99.90
24860;DHT22;12936;52.006;4.350;2024-01-06T14:57:34;6.10;99.90
24860;DHT22;12936;52.006;4.350;2024-01-06T15:00:03;6.00;99.90
24860;DHT22;12936;52.006;4.350;2024-01-06T15:02:31;6.00;99.90
24860;DHT22;12936;52.006;4.350;2024-01-06T15:05:00;6.00;99.90
24860;DHT22;12936;52.006;4.350;2024-01-06T15:07:31;6.00;99.90
24860;DHT22;12936;52.006;4.350;2024-01-06T15:09:59;6.00;99.90
24860;DHT22;12936;52.006;4.350;2024-01-06T15:12:32;5.90;99.90
24860;DHT22;12936;52.006;4.350;2024-01-06T15:15:00;5.90;99.90
24860;DHT22;12936;52.006;4.350;2024-01-06T15:17:28;5.90;99.90
24860;DHT22;12936;52.006;4.350;2024-01-06T15:19:56;6.00;99.90
24860;DHT22;12936;52.006;4.350;2024-01-06T15:22:25;5.90;99.90
24860;DHT22;12936;52.006;4.350;2024-01-06T15:24:53;5.90;99.90
24860;DHT22;12936;52.006;4.350;2024-01-06T15:27:24;5.90;99.90
24860;DHT22;12936;52.006;4.350;2024-01-06T15:29:54;5.80;99.90
24860;DHT22;12936;52.006;4.350;2024-01-06T15:32:22;5.80;99.90
24860;DHT22;12936;52.006;4.350;2024-01-06T15:34:50;5.80;99.90
24860;DHT22;12936;52.006;4.350;2024-01-06T15:37:19;5.80;99.90
24860;DHT22;12936;52.006;4.350;2024-01-06T15:39:47;5.80;99.90
24860;DHT22;12936;52.006;4.350;2024-01-06T15:42:16;5.80;99.90
24860;DHT22;12936;52.006;4.350;2024-01-06T15:44:44;5.80;99.90
24860;DHT22;12936;52.006;4.350;2024-01-06T15:47:13;5.70;99.90
24860;DHT22;12936;52.006;4.350;2024-01-06T15:49:41;5.70;99.90
24860;DHT22;12936;52.006;4.350;2024-01-06T15:52:10;5.70;99.90
24860;DHT22;12936;52.006;4.350;2024-01-06T15:54:38;5.70;99.90
24860;DHT22;12936;52.006;4.350;2024-01-06T15:57:07;5.80;99.90